Time;durP1;ratioP1;P1;durP2;ratioP2;P2;SDS_P1;SDS_P2;PMS_P1;PMS_P2;Temp;Humidity;BMP_temperature;BMP_pressure;BME280_temperature;BME280_humidity;BME280_pressure;Samples;Min_cycle;Max_cycle;Signal;HPM_P1;HPM_P2
2022/12/15 00:40:57;;;;;;;35.77;20.60;;;-0.10;99.90;;;;;;4917083;29;20449;-78
2022/12/15 00:43:26;;;;;;;31.80;19.47;;;-0.10;99.90;;;;;;4934344;29;20460;-77
2022/12/15 00:48:38;;;;;;;26.53;17.87;;;-0.20;99.90;;;;;;4919451;29;20546;-78
2022/12/15 00:51:04;;;;;;;35.50;20.10;;;-0.20;99.90;;;;;;4919405;29;20948;-77
2022/12/15 01:21:08;;;;;;;34.73;18.30;;;0.40;99.90;;;;;;4898541;29;20464;-78
2022/12/15 01:23:36;;;;;;;31.17;17.80;;;-0.30;99.90;;;;;;4909435;29;20503;-80
2022/12/15 01:26:04;;;;;;;31.10;18.70;;;-0.10;99.90;;;;;;4917102;29;20491;-78
2022/12/15 01:28:31;;;;;;;33.47;20.53;;;-0.30;99.90;;;;;;4916504;29;20460;-78
2022/12/15 01:31:00;;;;;;;32.60;18.13;;;-0.30;99.90;;;;;;4917747;29;20457;-78
2022/12/15 01:33:26;;;;;;;29.97;18.40;;;0.50;99.90;;;;;;4918525;29;20460;-79
2022/12/15 01:35:58;;;;;;;32.00;18.67;;;0.00;99.90;;;;;;4918383;29;20520;-78
2022/12/15 01:38:26;;;;;;;33.77;19.57;;;0.10;99.90;;;;;;4919122;29;20491;-78
2022/12/15 01:40:57;;;;;;;30.87;17.90;;;-0.30;99.90;;;;;;4916527;29;20516;-79
2022/12/15 01:43:27;;;;;;;32.40;19.30;;;-0.30;99.90;;;;;;4914758;29;20499;-78
2022/12/15 01:46:06;;;;;;;32.17;19.90;;;-0.40;99.90;;;;;;4914456;29;20452;-78
2022/12/15 01:48:41;;;;;;;34.10;18.50;;;-0.30;99.90;;;;;;4914393;29;20519;-77
2022/12/15 01:51:26;;;;;;;28.77;17.50;;;-0.30;99.90;;;;;;4914119;29;20515;-77
2022/12/15 01:53:59;;;;;;;33.63;19.00;;;-0.30;99.90;;;;;;4912831;29;20535;-77
2022/12/15 01:56:27;;;;;;;30.43;20.40;;;-0.40;99.90;;;;;;4914064;29;20464;-78
2022/12/15 01:59:00;;;;;;;33.70;19.63;;;-0.30;99.90;;;;;;4913638;29;20495;-78
2022/12/15 02:01:29;;;;;;;33.43;19.30;;;-0.10;99.90;;;;;;4916239;29;20460;-77
2022/12/15 02:03:56;;;;;;;27.53;17.40;;;-0.30;99.90;;;;;;4915798;29;20498;-78
2022/12/15 02:06:26;;;;;;;33.63;19.87;;;-0.40;99.90;;;;;;4916516;29;20546;-77
2022/12/15 02:08:55;;;;;;;31.93;17.30;;;-0.30;99.90;;;;;;4914612;29;20504;-77
2022/12/15 02:11:45;;;;;;;31.43;17.80;;;-0.50;99.90;;;;;;4914521;29;20625;-76
2022/12/15 02:14:17;;;;;;;32.97;18.27;;;-0.50;99.90;;;;;;4916670;29;20467;-76
2022/12/15 02:16:58;;;;;;;26.83;15.40;;;-0.50;99.90;;;;;;4916888;29;20492;-78
2022/12/15 02:19:59;;;;;;;28.43;16.97;;;-0.50;99.90;;;;;;4916777;29;20496;-77
2022/12/15 02:22:35;;;;;;;30.20;17.37;;;-0.40;99.90;;;;;;4918268;29;20455;-77
2022/12/15 02:25:20;;;;;;;24.27;15.50;;;-0.10;99.90;;;;;;4919050;29;20955;-77
2022/12/15 02:28:13;;;;;;;24.10;15.00;;;-0.70;99.90;;;;;;4919475;29;20488;-76
2022/12/15 02:31:48;;;;;;;30.87;17.87;;;-0.60;99.90;;;;;;4919182;29;20479;-76
2022/12/15 02:33:43;;;;;;;24.63;15.13;;;-0.60;99.90;;;;;;4919329;29;20450;-77
2022/12/15 02:36:18;;;;;;;28.40;16.57;;;-0.20;99.90;;;;;;4919358;29;20483;-77
2022/12/15 02:38:45;;;;;;;21.70;14.77;;;-0.80;99.90;;;;;;4919052;29;20530;-78
2022/12/15 02:41:36;;;;;;;21.27;13.07;;;-0.70;99.90;;;;;;4919192;29;20515;-78
2022/12/15 02:44:10;;;;;;;25.50;14.27;;;-0.60;99.90;;;;;;4916246;29;20853;-76
2022/12/15 02:46:51;;;;;;;26.40;15.53;;;-0.40;99.90;;;;;;4917277;29;20543;-77
2022/12/15 02:49:27;;;;;;;25.63;14.17;;;-0.30;99.90;;;;;;4917497;29;20560;-78
2022/12/15 02:52:02;;;;;;;26.10;15.50;;;-0.60;99.90;;;;;;4916895;29;20548;-78
2022/12/15 02:54:43;;;;;;;26.90;16.10;;;-0.50;99.90;;;;;;4917110;29;20550;-77
2022/12/15 02:57:18;;;;;;;24.93;14.83;;;-0.40;99.90;;;;;;4917651;29;20484;-78
2022/12/15 02:59:54;;;;;;;34.70;17.70;;;-0.60;99.90;;;;;;4915829;29;20510;-78
2022/12/15 03:02:24;;;;;;;29.30;17.33;;;0.20;99.90;;;;;;4918223;29;20473;-78
2022/12/15 03:04:54;;;;;;;30.00;17.40;;;-0.70;99.90;;;;;;4917387;29;20498;-78
2022/12/15 03:12:31;;;;;;;29.77;17.10;;;-0.70;99.90;;;;;;3249786;26;20633;-74
2022/12/15 03:14:58;;;;;;;29.00;15.27;;;-0.40;99.90;;;;;;4952640;29;20787;-74
2022/12/15 03:17:34;;;;;;;28.07;18.33;;;-0.80;99.90;;;;;;4950735;28;20577;-74
2022/12/15 03:20:01;;;;;;;32.03;18.57;;;-0.60;99.90;;;;;;4952272;29;20548;-74
2022/12/15 03:22:28;;;;;;;29.20;17.40;;;-0.30;99.90;;;;;;4952364;29;20978;-74
2022/12/15 03:24:55;;;;;;;31.80;17.30;;;-0.30;99.90;;;;;;4952169;29;20541;-74
2022/12/15 03:27:26;;;;;;;31.33;18.27;;;-0.50;99.90;;;;;;4952390;29;21080;-75
2022/12/15 03:29:52;;;;;;;29.20;17.63;;;-0.80;99.90;;;;;;4952539;29;20458;-75
2022/12/15 03:32:19;;;;;;;34.80;17.97;;;-0.80;99.90;;;;;;4950600;29;20477;-75
2022/12/15 03:34:48;;;;;;;31.40;16.93;;;-0.50;99.90;;;;;;4951900;28;20486;-74
2022/12/15 03:37:15;;;;;;;28.80;17.13;;;-0.20;99.90;;;;;;4951608;29;20454;-74
2022/12/15 03:39:50;;;;;;;27.10;15.73;;;-0.80;99.90;;;;;;4951826;29;20533;-75
2022/12/15 03:42:47;;;;;;;29.57;17.73;;;-0.70;99.90;;;;;;4952111;29;20875;-75
2022/12/15 03:45:06;;;;;;;35.27;17.93;;;-0.80;99.90;;;;;;4951692;29;20652;-74
2022/12/15 03:47:32;;;;;;;32.87;18.23;;;-0.80;99.90;;;;;;4951815;29;20486;-74
2022/12/15 03:50:01;;;;;;;33.90;19.60;;;-0.80;99.90;;;;;;4951328;28;20911;-76
2022/12/15 03:52:28;;;;;;;34.70;20.07;;;-0.80;99.90;;;;;;4953466;29;20463;-74
2022/12/15 03:54:55;;;;;;;34.30;20.10;;;-0.80;99.90;;;;;;4953840;29;20517;-75
2022/12/15 03:57:29;;;;;;;37.20;20.93;;;-0.80;99.90;;;;;;4952769;29;20546;-76
2022/12/15 03:59:56;;;;;;;35.67;18.27;;;-0.20;99.90;;;;;;4952788;29;20527;-74
2022/12/15 04:02:23;;;;;;;31.63;18.60;;;-0.80;99.90;;;;;;4952171;29;21010;-75
2022/12/15 04:04:50;;;;;;;39.60;20.43;;;-0.80;99.90;;;;;;4955738;29;20453;-76
2022/12/15 04:07:19;;;;;;;30.40;19.70;;;-0.90;99.90;;;;;;4955758;28;20569;-75
2022/12/15 04:09:46;;;;;;;41.30;21.33;;;-0.90;99.90;;;;;;4960238;28;20476;-75
2022/12/15 04:12:13;;;;;;;30.30;17.90;;;-1.10;99.90;;;;;;4970505;28;20485;-74
2022/12/15 04:14:41;;;;;;;35.37;20.47;;;-1.00;99.90;;;;;;4970555;28;20826;-75
2022/12/15 04:17:08;;;;;;;30.03;17.27;;;-0.90;99.90;;;;;;4970467;28;20832;-75
2022/12/15 04:22:21;;;;;;;31.07;18.60;;;-0.50;99.90;;;;;;4970697;28;20484;-74
2022/12/15 05:33:36;;;;;;;37.03;20.43;;;-0.90;99.90;;;;;;4974751;28;20445;-74
2022/12/15 05:36:03;;;;;;;37.50;19.77;;;-1.10;99.90;;;;;;4967967;28;20501;-75
2022/12/15 05:38:30;;;;;;;34.53;20.10;;;-1.00;99.90;;;;;;4966918;28;20495;-75
2022/12/15 05:40:58;;;;;;;40.20;20.47;;;-0.90;99.90;;;;;;4973090;28;20485;-76
2022/12/15 05:44:06;;;;;;;29.73;17.47;;;-0.90;99.90;;;;;;4976706;28;20960;-78
2022/12/15 05:46:34;;;;;;;39.27;20.23;;;-0.90;99.90;;;;;;4971682;28;20509;-76
2022/12/15 05:49:03;;;;;;;33.13;18.93;;;-0.90;99.90;;;;;;4973400;28;20477;-75
2022/12/15 05:51:29;;;;;;;35.63;18.67;;;-0.30;99.90;;;;;;4973470;28;20520;-75
2022/12/15 05:53:57;;;;;;;40.17;20.97;;;-0.80;99.90;;;;;;4970917;28;21069;-74
2022/12/15 05:56:26;;;;;;;30.37;18.00;;;-1.00;99.90;;;;;;4974911;28;20444;-78
2022/12/15 05:58:53;;;;;;;34.30;19.30;;;-0.90;99.90;;;;;;4986022;28;20503;-78
2022/12/15 06:01:21;;;;;;;38.97;20.33;;;-1.00;99.90;;;;;;4983204;28;20442;-76
2022/12/15 06:03:51;;;;;;;40.20;20.57;;;-1.10;99.90;;;;;;4978701;28;20472;-75
2022/12/15 06:06:18;;;;;;;32.00;18.80;;;-1.10;99.90;;;;;;4981345;28;20446;-76
2022/12/15 06:08:45;;;;;;;35.13;18.40;;;-1.10;99.90;;;;;;4984955;28;20885;-75
2022/12/15 06:11:13;;;;;;;32.10;18.17;;;-0.30;99.90;;;;;;4984502;28;20480;-75
2022/12/15 06:13:41;;;;;;;32.27;20.53;;;-1.00;99.90;;;;;;4967529;28;20499;-76
2022/12/15 06:16:12;;;;;;;35.03;19.10;;;-1.00;99.90;;;;;;4986191;28;20443;-75
2022/12/15 06:18:41;;;;;;;35.63;19.90;;;-1.00;99.90;;;;;;4972566;28;20567;-75
2022/12/15 06:21:13;;;;;;;38.40;19.43;;;-1.00;99.90;;;;;;4970294;28;20513;-75
2022/12/15 06:23:40;;;;;;;28.77;18.07;;;-0.40;99.90;;;;;;4987046;28;20449;-76
2022/12/15 06:26:14;;;;;;;34.57;19.00;;;-1.00;99.90;;;;;;4981816;28;20524;-76
2022/12/15 06:28:48;;;;;;;30.80;17.57;;;-1.00;99.90;;;;;;4977827;28;20517;-77
2022/12/15 06:31:16;;;;;;;33.87;19.17;;;-1.10;99.90;;;;;;4978093;28;20458;-76
2022/12/15 06:33:44;;;;;;;36.10;20.70;;;-1.10;99.90;;;;;;4978536;28;20483;-76
2022/12/15 06:36:14;;;;;;;35.80;20.20;;;-0.40;99.90;;;;;;4975049;28;20551;-77
2022/12/15 06:38:42;;;;;;;32.50;17.70;;;-1.10;99.90;;;;;;4957158;29;20493;-76
2022/12/15 06:41:10;;;;;;;29.33;16.20;;;-0.30;99.90;;;;;;4957620;29;20549;-76
2022/12/15 06:43:37;;;;;;;30.67;19.20;;;-1.00;99.90;;;;;;4973601;28;20524;-75
2022/12/15 06:46:04;;;;;;;39.80;18.93;;;-0.60;99.90;;;;;;4974755;28;20464;-75
2022/12/15 06:48:31;;;;;;;31.40;18.73;;;-0.90;99.90;;;;;;4974400;28;20831;-76
2022/12/15 06:51:03;;;;;;;37.50;19.03;;;-0.90;99.90;;;;;;4974397;28;20557;-76
2022/12/15 06:53:32;;;;;;;36.30;20.90;;;-1.00;99.90;;;;;;4973699;28;20944;-76
2022/12/15 06:56:03;;;;;;;28.70;17.60;;;-0.90;99.90;;;;;;4974431;28;20544;-75
2022/12/15 06:58:30;;;;;;;31.67;17.30;;;-0.90;99.90;;;;;;4975066;28;20497;-76
2022/12/15 07:00:57;;;;;;;27.07;16.50;;;-0.90;99.90;;;;;;4974358;28;20591;-75
2022/12/15 07:03:24;;;;;;;32.43;19.13;;;-0.20;99.90;;;;;;4974091;28;20540;-77
2022/12/15 07:06:03;;;;;;;32.90;20.27;;;-1.00;99.90;;;;;;4974681;28;21007;-77
2022/12/15 07:08:36;;;;;;;30.70;18.07;;;-1.10;99.90;;;;;;4977781;28;20476;-77
2022/12/15 07:11:04;;;;;;;36.90;20.87;;;-1.00;99.90;;;;;;4982751;28;20469;-76
2022/12/15 07:13:31;;;;;;;32.83;18.10;;;-0.90;99.90;;;;;;4972929;28;20528;-76
2022/12/15 07:15:59;;;;;;;32.63;18.77;;;-0.90;99.90;;;;;;4972339;28;20527;-76
2022/12/15 07:18:26;;;;;;;38.07;20.60;;;-0.90;99.90;;;;;;4972708;28;20584;-75
2022/12/15 07:20:53;;;;;;;34.40;19.73;;;-1.00;99.90;;;;;;4963564;28;20935;-75
2022/12/15 07:23:20;;;;;;;34.10;21.23;;;-0.80;99.90;;;;;;4955545;28;20822;-75
2022/12/15 07:25:48;;;;;;;37.73;20.20;;;-1.20;99.90;;;;;;4964362;28;21064;-74
2022/12/15 07:28:15;;;;;;;45.43;22.60;;;-1.20;99.90;;;;;;4971657;28;20591;-75
2022/12/15 07:30:42;;;;;;;39.13;20.43;;;-1.30;99.90;;;;;;4972427;28;20458;-75
2022/12/15 07:33:09;;;;;;;37.60;20.43;;;-1.10;99.90;;;;;;4972249;28;20491;-74
2022/12/15 07:35:36;;;;;;;35.77;21.33;;;-1.10;99.90;;;;;;4971869;28;20563;-74
2022/12/15 07:38:07;;;;;;;38.03;20.60;;;-0.50;99.90;;;;;;4968809;28;20557;-75
2022/12/15 07:40:34;;;;;;;37.00;20.27;;;-0.90;99.90;;;;;;4963915;28;20495;-77
2022/12/15 07:43:04;;;;;;;41.23;21.63;;;-0.90;99.90;;;;;;4972436;28;20496;-75
2022/12/15 07:45:31;;;;;;;42.40;20.47;;;-0.90;99.90;;;;;;4972472;28;20915;-76
2022/12/15 07:47:58;;;;;;;44.03;26.50;;;-0.70;99.90;;;;;;4972733;28;20502;-77
2022/12/15 07:50:27;;;;;;;34.13;21.83;;;-0.80;99.90;;;;;;4972225;28;20464;-76
2022/12/15 07:52:55;;;;;;;37.57;22.23;;;-0.80;99.90;;;;;;4974077;28;20450;-76
2022/12/15 07:55:21;;;;;;;35.40;20.33;;;-0.80;99.90;;;;;;4974860;28;20467;-75
2022/12/15 07:57:48;;;;;;;34.57;21.23;;;-0.70;99.90;;;;;;4970667;28;20469;-76
2022/12/15 08:03:02;;;;;;;40.40;23.07;;;-0.70;99.90;;;;;;4971302;28;20459;-75
2022/12/15 08:05:29;;;;;;;38.33;24.00;;;-0.70;99.90;;;;;;4971506;28;20461;-74
2022/12/15 08:07:57;;;;;;;38.70;20.90;;;-0.80;99.90;;;;;;4971154;28;20552;-75
2022/12/15 08:10:24;;;;;;;40.10;22.13;;;0.00;99.90;;;;;;4971930;28;21013;-75
2022/12/15 08:12:52;;;;;;;38.67;21.27;;;-0.70;99.90;;;;;;4970616;28;20580;-75
2022/12/15 08:15:20;;;;;;;34.97;20.67;;;-0.90;99.90;;;;;;4971763;28;20449;-75
2022/12/15 08:17:50;;;;;;;37.00;20.80;;;0.00;99.90;;;;;;4971768;28;20449;-76
2022/12/15 08:20:28;;;;;;;38.03;21.33;;;-0.80;99.90;;;;;;4972267;28;20508;-76
2022/12/15 08:22:55;;;;;;;33.90;20.70;;;-0.70;99.90;;;;;;4972225;28;20441;-75
2022/12/15 08:25:21;;;;;;;41.93;22.80;;;-0.80;99.90;;;;;;4972406;28;20508;-77
2022/12/15 08:27:51;;;;;;;42.33;23.30;;;-0.70;99.90;;;;;;4973473;28;20837;-75
2022/12/15 08:30:22;;;;;;;37.37;22.67;;;-0.60;99.90;;;;;;4971933;28;20496;-76
2022/12/15 08:33:01;;;;;;;39.00;23.77;;;-0.50;99.90;;;;;;4973152;28;20461;-76
2022/12/15 08:35:28;;;;;;;39.40;19.87;;;-0.40;99.90;;;;;;4973234;28;20460;-75
2022/12/15 08:37:57;;;;;;;40.00;21.30;;;-0.40;99.90;;;;;;4972595;28;20844;-75
2022/12/15 08:40:25;;;;;;;39.77;20.80;;;-0.30;99.90;;;;;;4973614;28;20484;-77
2022/12/15 08:42:51;;;;;;;39.03;21.73;;;-0.30;99.90;;;;;;4973283;28;20458;-76
2022/12/15 08:45:20;;;;;;;35.13;20.60;;;-0.20;99.90;;;;;;4971986;28;20477;-75
2022/12/15 08:47:47;;;;;;;38.47;20.20;;;-0.10;99.90;;;;;;4974866;28;20894;-76
2022/12/15 08:50:14;;;;;;;38.63;20.70;;;0.00;99.90;;;;;;4974461;28;20857;-76
2022/12/15 08:52:41;;;;;;;35.97;20.07;;;0.20;99.90;;;;;;4974620;28;20462;-75
2022/12/15 08:55:10;;;;;;;39.40;23.17;;;0.30;99.90;;;;;;4974756;28;20517;-77
2022/12/15 08:57:37;;;;;;;38.73;20.73;;;0.30;99.90;;;;;;4974837;28;20458;-76
2022/12/15 09:00:05;;;;;;;36.37;21.17;;;0.30;99.90;;;;;;4975431;28;20996;-76
2022/12/15 09:02:33;;;;;;;36.23;21.07;;;0.40;99.90;;;;;;4975589;28;20469;-77
2022/12/15 09:05:00;;;;;;;35.67;19.60;;;0.50;99.90;;;;;;4976577;28;20481;-75
2022/12/15 09:07:27;;;;;;;38.27;22.07;;;0.50;99.90;;;;;;4976360;28;20446;-76
2022/12/15 09:09:54;;;;;;;39.17;21.03;;;0.60;99.90;;;;;;4975594;28;21158;-77
2022/12/15 09:12:22;;;;;;;37.17;18.73;;;0.50;99.90;;;;;;5055676;23;20498;-80
2022/12/15 09:14:49;;;;;;;31.47;19.63;;;0.50;99.90;;;;;;4936848;29;20454;-77
2022/12/15 09:17:16;;;;;;;38.07;19.93;;;0.40;99.90;;;;;;4935782;29;20510;-76
2022/12/15 09:19:44;;;;;;;40.20;22.93;;;0.40;99.90;;;;;;4949065;29;20501;-76
2022/12/15 09:22:11;;;;;;;35.10;20.97;;;0.40;99.90;;;;;;4951940;29;20870;-76
2022/12/15 09:24:40;;;;;;;46.37;23.47;;;0.40;99.90;;;;;;4929271;29;20504;-74
2022/12/15 09:27:16;;;;;;;38.93;22.10;;;0.30;99.90;;;;;;4912614;29;20538;-74
2022/12/15 09:29:43;;;;;;;39.23;23.00;;;0.40;99.90;;;;;;4912885;29;20510;-75
2022/12/15 09:32:10;;;;;;;50.17;24.13;;;0.30;99.90;;;;;;4915236;29;20505;-74
2022/12/15 09:34:36;;;;;;;37.70;22.83;;;0.30;99.90;;;;;;4921873;29;20480;-74
2022/12/15 09:37:12;;;;;;;33.33;22.67;;;0.70;99.90;;;;;;4954856;29;20546;-74
2022/12/15 09:39:39;;;;;;;33.60;22.23;;;0.20;99.90;;;;;;4954477;29;20844;-75
2022/12/15 09:42:05;;;;;;;37.57;23.17;;;0.40;99.90;;;;;;4954732;29;20525;-75
2022/12/15 09:44:33;;;;;;;40.77;22.53;;;0.40;99.90;;;;;;4954699;29;21174;-75
2022/12/15 09:47:17;;;;;;;41.00;23.13;;;0.50;99.90;;;;;;4954150;29;20467;-75
2022/12/15 09:49:53;;;;;;;44.07;22.60;;;0.40;99.90;;;;;;4954903;29;20604;-74
2022/12/15 09:52:25;;;;;;;41.33;24.00;;;0.50;99.90;;;;;;4952183;29;20489;-74
2022/12/15 09:54:52;;;;;;;44.00;24.37;;;0.60;99.90;;;;;;4954257;29;20455;-75
2022/12/15 09:57:30;;;;;;;39.20;21.83;;;0.60;99.90;;;;;;4938113;29;20479;-74
2022/12/15 10:00:24;;;;;;;39.20;23.93;;;0.70;99.90;;;;;;4925158;29;21111;-73
2022/12/15 10:03:21;;;;;;;42.93;23.40;;;0.70;99.90;;;;;;4903270;29;20493;-74
2022/12/15 10:06:09;;;;;;;41.10;26.00;;;0.70;99.90;;;;;;4915861;29;20471;-73
2022/12/15 10:08:40;;;;;;;40.50;22.20;;;0.90;99.90;;;;;;4916713;29;20484;-73
2022/12/15 10:11:20;;;;;;;44.77;24.73;;;0.90;99.90;;;;;;4934611;29;21277;-74
2022/12/15 10:13:53;;;;;;;39.00;21.73;;;1.00;99.90;;;;;;4933728;29;21044;-76
2022/12/15 10:16:29;;;;;;;37.87;20.90;;;1.00;99.90;;;;;;4935565;29;20459;-77
2022/12/15 10:19:05;;;;;;;32.90;20.37;;;1.10;99.90;;;;;;4920841;29;20852;-74
2022/12/15 10:21:32;;;;;;;40.90;22.70;;;1.20;99.90;;;;;;4934699;29;20451;-73
2022/12/15 10:24:17;;;;;;;52.43;24.07;;;1.30;99.90;;;;;;4934564;29;20515;-74
2022/12/15 10:26:52;;;;;;;33.63;19.57;;;1.20;99.90;;;;;;4934884;29;20459;-77
2022/12/15 10:29:31;;;;;;;41.70;23.17;;;1.90;99.90;;;;;;4933377;29;20455;-76
2022/12/15 10:32:01;;;;;;;40.27;22.10;;;1.20;99.90;;;;;;4934149;29;20929;-73
2022/12/15 10:34:31;;;;;;;33.87;21.73;;;1.20;99.90;;;;;;4934073;29;20488;-74
2022/12/15 10:36:58;;;;;;;41.30;21.07;;;1.30;99.90;;;;;;4933947;29;20483;-74
2022/12/15 10:39:39;;;;;;;38.73;23.00;;;1.20;99.90;;;;;;4934114;29;20574;-74
2022/12/15 10:42:16;;;;;;;44.30;23.20;;;2.00;99.90;;;;;;4934152;28;20471;-73
2022/12/15 10:44:50;;;;;;;39.10;20.17;;;1.10;99.90;;;;;;4933666;29;20526;-74
2022/12/15 10:47:21;;;;;;;40.73;22.97;;;1.10;99.90;;;;;;4940422;29;21051;-74
2022/12/15 10:49:49;;;;;;;41.47;22.77;;;1.10;99.90;;;;;;4953240;29;20924;-73
2022/12/15 10:52:26;;;;;;;41.23;24.37;;;1.10;99.90;;;;;;4952735;29;20542;-74
2022/12/15 10:54:56;;;;;;;40.70;22.97;;;1.10;99.90;;;;;;4953041;29;20453;-74
2022/12/15 10:57:27;;;;;;;43.67;24.27;;;1.10;99.90;;;;;;4953248;29;20458;-73
2022/12/15 10:59:56;;;;;;;36.20;23.20;;;0.80;99.90;;;;;;4952827;29;20525;-73
2022/12/15 11:02:32;;;;;;;44.23;24.97;;;1.00;99.90;;;;;;4952696;29;20557;-75
2022/12/15 11:05:01;;;;;;;39.90;24.30;;;1.20;99.90;;;;;;4938738;29;20474;-75
2022/12/15 11:07:34;;;;;;;46.77;26.03;;;1.00;99.90;;;;;;4933837;29;20464;-74
2022/12/15 11:10:14;;;;;;;44.07;25.63;;;0.70;99.90;;;;;;4933757;29;20559;-75
2022/12/15 11:12:53;;;;;;;47.40;24.53;;;0.90;99.90;;;;;;4933452;29;20476;-74
2022/12/15 11:15:45;;;;;;;46.57;24.57;;;0.90;99.90;;;;;;4934195;29;20459;-74
2022/12/15 11:18:21;;;;;;;47.63;26.53;;;0.90;99.90;;;;;;4916024;29;20455;-74
2022/12/15 11:20:53;;;;;;;50.73;27.63;;;1.40;99.90;;;;;;4934415;29;20532;-75
2022/12/15 11:23:26;;;;;;;49.73;27.90;;;0.80;99.90;;;;;;4953465;29;20517;-74
2022/12/15 11:26:00;;;;;;;51.50;25.70;;;0.60;99.90;;;;;;4953618;29;20459;-74
2022/12/15 11:31:22;;;;;;;44.27;25.77;;;1.40;99.90;;;;;;4932513;29;20468;-76
2022/12/15 11:33:52;;;;;;;47.17;25.93;;;0.90;99.90;;;;;;4936036;29;20456;-74
2022/12/15 11:36:30;;;;;;;54.27;29.03;;;0.70;99.90;;;;;;4934467;29;20463;-74
2022/12/15 11:39:03;;;;;;;44.67;27.30;;;0.90;99.90;;;;;;4942594;29;20553;-73
2022/12/15 11:41:38;;;;;;;52.07;25.73;;;0.80;99.90;;;;;;4953140;29;20499;-75
2022/12/15 11:44:25;;;;;;;53.13;26.73;;;0.70;99.90;;;;;;4953121;29;20860;-75
2022/12/15 11:47:03;;;;;;;46.57;26.80;;;0.70;99.90;;;;;;4953667;29;20541;-74
2022/12/15 11:50:05;;;;;;;47.43;26.40;;;0.70;99.90;;;;;;4953094;29;20458;-74
2022/12/15 11:52:48;;;;;;;52.53;28.10;;;0.80;99.90;;;;;;4951345;29;20593;-75
2022/12/15 11:55:21;;;;;;;52.20;27.00;;;0.70;99.90;;;;;;4952142;28;20490;-74
2022/12/15 11:58:15;;;;;;;53.60;27.57;;;0.90;99.90;;;;;;4953118;29;20459;-74
2022/12/15 12:00:47;;;;;;;45.93;26.10;;;0.90;99.90;;;;;;4952808;29;20904;-75
2022/12/15 12:03:26;;;;;;;44.37;24.47;;;0.90;99.90;;;;;;4949037;29;20535;-76
2022/12/15 12:06:13;;;;;;;42.60;24.70;;;0.90;99.90;;;;;;4920023;29;20886;-74
2022/12/15 12:09:11;;;;;;;41.60;23.60;;;0.90;99.90;;;;;;4924493;29;21144;-76
2022/12/15 12:11:44;;;;;;;40.10;27.00;;;0.90;99.90;;;;;;4924265;29;20529;-74
2022/12/15 12:14:36;;;;;;;49.20;26.80;;;1.50;99.90;;;;;;4913812;29;20492;-74
2022/12/15 12:17:10;;;;;;;49.83;27.97;;;0.90;99.90;;;;;;4913743;29;20461;-74
2022/12/15 12:19:42;;;;;;;54.13;26.90;;;0.90;99.90;;;;;;4913494;29;20518;-74
2022/12/15 12:22:21;;;;;;;43.83;25.37;;;0.60;99.90;;;;;;4916308;29;20951;-72
2022/12/15 12:24:52;;;;;;;47.43;26.50;;;0.60;99.90;;;;;;4923938;29;20718;-73
2022/12/15 12:27:33;;;;;;;51.00;25.77;;;0.40;99.90;;;;;;4929094;29;20809;-75
2022/12/15 12:30:04;;;;;;;52.70;27.70;;;0.40;99.90;;;;;;4927989;29;20463;-75
2022/12/15 12:32:42;;;;;;;47.37;28.30;;;0.50;99.90;;;;;;4926034;29;20556;-73
2022/12/15 12:35:16;;;;;;;58.80;26.17;;;0.60;99.90;;;;;;4923207;29;20456;-73
2022/12/15 12:37:45;;;;;;;50.17;28.30;;;0.60;99.90;;;;;;4932384;29;20506;-73
2022/12/15 12:40:19;;;;;;;42.37;25.20;;;0.80;99.90;;;;;;4931201;29;21023;-77
2022/12/15 12:42:53;;;;;;;47.77;26.60;;;0.70;99.90;;;;;;4915690;29;20509;-75
2022/12/15 12:45:26;;;;;;;48.50;27.83;;;0.70;99.90;;;;;;4915138;29;20547;-74
2022/12/15 12:47:56;;;;;;;43.00;25.77;;;0.70;99.90;;;;;;4926582;29;20523;-74
2022/12/15 12:50:25;;;;;;;51.63;25.90;;;0.60;99.90;;;;;;4931819;29;20832;-73
2022/12/15 12:52:55;;;;;;;41.73;25.00;;;0.60;99.90;;;;;;4913032;29;20460;-75
2022/12/15 12:55:26;;;;;;;51.10;26.60;;;0.40;99.90;;;;;;4928267;29;20928;-74
2022/12/15 12:58:00;;;;;;;46.50;25.00;;;0.50;99.90;;;;;;4931631;29;20960;-74
2022/12/15 13:03:31;;;;;;;66.77;28.53;;;0.50;99.90;;;;;;4913329;29;20472;-75
2022/12/15 13:05:58;;;;;;;45.10;25.03;;;0.40;99.90;;;;;;4913190;29;20877;-74
2022/12/15 13:08:44;;;;;;;54.50;27.00;;;0.30;99.90;;;;;;4927763;29;20466;-75
2022/12/15 13:11:55;;;;;;;50.80;29.13;;;0.10;99.90;;;;;;4932180;29;20453;-74
2022/12/15 13:14:36;;;;;;;53.77;27.90;;;0.00;99.90;;;;;;4929153;29;20472;-75
2022/12/15 13:17:11;;;;;;;51.50;25.70;;;0.00;99.90;;;;;;4926599;29;20474;-74
2022/12/15 13:20:21;;;;;;;42.13;25.23;;;0.10;99.90;;;;;;4921001;29;21035;-74
2022/12/15 13:22:48;;;;;;;62.00;25.67;;;0.20;99.90;;;;;;4870940;29;20478;-74
2022/12/15 13:25:38;;;;;;;54.17;25.73;;;-0.10;99.90;;;;;;4931851;29;20543;-75
2022/12/15 13:28:39;;;;;;;49.10;26.30;;;0.00;99.90;;;;;;4925927;29;20475;-73
2022/12/15 13:31:32;;;;;;;47.80;27.77;;;0.10;99.90;;;;;;4931507;29;20450;-74
2022/12/15 13:34:27;;;;;;;50.80;27.07;;;0.10;99.90;;;;;;4928941;29;20915;-73
2022/12/15 13:37:01;;;;;;;51.37;27.47;;;0.00;99.90;;;;;;4931728;29;20463;-73
2022/12/15 13:39:54;;;;;;;51.90;25.67;;;-0.10;99.90;;;;;;4931766;29;20459;-73
2022/12/15 13:42:33;;;;;;;55.03;27.57;;;-0.30;99.90;;;;;;4930722;29;20466;-73
2022/12/15 13:45:39;;;;;;;55.67;26.37;;;-0.20;99.90;;;;;;4912177;29;20468;-73
2022/12/15 13:51:03;;;;;;;52.33;26.97;;;-0.10;99.90;;;;;;4911305;29;20820;-74
2022/12/15 13:53:37;;;;;;;50.43;25.27;;;0.00;99.90;;;;;;4912598;29;20543;-74
2022/12/15 13:56:19;;;;;;;52.37;26.20;;;0.00;99.90;;;;;;4912691;29;20447;-74
2022/12/15 13:58:54;;;;;;;44.33;25.10;;;-0.10;99.90;;;;;;4932045;29;20467;-78
2022/12/15 14:01:24;;;;;;;50.00;25.27;;;0.30;99.90;;;;;;4934329;29;20518;-75
2022/12/15 14:04:14;;;;;;;45.67;22.67;;;-0.10;99.90;;;;;;4933257;29;20823;-73
2022/12/15 14:06:47;;;;;;;50.63;26.67;;;-0.20;99.90;;;;;;4930217;29;20456;-73
2022/12/15 14:09:24;;;;;;;43.30;24.50;;;-0.10;99.90;;;;;;4912173;29;20517;-73
2022/12/15 14:11:52;;;;;;;52.23;26.70;;;-0.10;99.90;;;;;;4912350;29;20458;-74
2022/12/15 14:14:22;;;;;;;49.80;27.07;;;-0.10;99.90;;;;;;4928601;29;20711;-73
2022/12/15 14:16:58;;;;;;;50.20;27.27;;;-0.30;99.90;;;;;;4950445;28;20971;-74
2022/12/15 14:19:26;;;;;;;47.07;26.60;;;-0.30;99.90;;;;;;4949148;29;20463;-74
2022/12/15 14:21:56;;;;;;;60.60;30.40;;;-0.50;99.90;;;;;;4935447;29;20498;-74
2022/12/15 14:24:34;;;;;;;53.07;28.50;;;-0.60;99.90;;;;;;4934850;29;20463;-73
2022/12/15 14:27:01;;;;;;;54.97;25.80;;;-0.50;99.90;;;;;;4934901;29;20494;-73
2022/12/15 14:29:28;;;;;;;48.50;26.90;;;-0.30;99.90;;;;;;4931458;29;20507;-73
2022/12/15 14:31:56;;;;;;;48.23;23.53;;;-0.20;99.90;;;;;;4947432;29;20525;-73
2022/12/15 14:34:31;;;;;;;49.73;27.00;;;-0.40;99.90;;;;;;4933134;29;20495;-73
2022/12/15 14:37:03;;;;;;;52.93;25.50;;;-0.40;99.90;;;;;;4938817;29;20493;-75
2022/12/15 14:39:36;;;;;;;51.47;29.30;;;-0.50;99.90;;;;;;4938945;29;20455;-75
2022/12/15 14:42:10;;;;;;;46.37;23.10;;;-0.40;99.90;;;;;;4936182;29;20507;-74
2022/12/15 14:44:39;;;;;;;43.17;24.13;;;-0.70;99.90;;;;;;4927484;29;20562;-73
2022/12/15 14:47:16;;;;;;;45.80;25.53;;;-0.70;99.90;;;;;;4929783;29;21146;-75
2022/12/15 14:49:47;;;;;;;45.43;26.80;;;-0.70;99.90;;;;;;4925780;29;20470;-74
2022/12/15 14:52:25;;;;;;;53.60;26.07;;;-0.60;99.90;;;;;;4924042;29;20506;-74
2022/12/15 14:54:54;;;;;;;53.00;26.60;;;-0.50;99.90;;;;;;4912177;29;20467;-74
2022/12/15 14:57:23;;;;;;;49.57;25.93;;;-0.60;99.90;;;;;;4911492;29;20547;-74
2022/12/15 14:59:51;;;;;;;52.83;28.13;;;-0.60;99.90;;;;;;4912090;29;20463;-74
2022/12/15 15:02:21;;;;;;;56.87;26.87;;;-0.70;99.90;;;;;;4912266;29;20504;-74
2022/12/15 15:04:58;;;;;;;49.67;27.47;;;-0.70;99.90;;;;;;4944712;29;20482;-75
2022/12/15 15:07:28;;;;;;;51.20;27.20;;;-0.70;99.90;;;;;;4932303;29;20525;-74
2022/12/15 15:09:56;;;;;;;53.03;28.10;;;-0.60;99.90;;;;;;4914420;29;20482;-75
2022/12/15 15:15:19;;;;;;;51.47;27.00;;;-0.60;99.90;;;;;;4939957;23;20615;-75
2022/12/15 15:17:52;;;;;;;54.17;25.87;;;-0.70;99.90;;;;;;4960177;28;20490;-76
2022/12/15 15:20:23;;;;;;;59.53;29.30;;;-0.30;99.90;;;;;;4960205;29;21097;-79
2022/12/15 15:23:13;;;;;;;60.93;32.23;;;0.30;99.90;;;;;;4972672;28;20455;-79
2022/12/15 15:25:53;;;;;;;58.00;28.70;;;0.10;99.90;;;;;;4965755;29;20466;-79
2022/12/15 15:28:52;;;;;;;53.80;27.03;;;-0.30;99.90;;;;;;4954751;28;20550;-78
2022/12/15 15:32:09;;;;;;;53.37;29.37;;;-0.40;99.90;;;;;;4956220;29;20474;-79
2022/12/15 15:34:39;;;;;;;49.70;25.13;;;-0.50;99.90;;;;;;4958156;29;20673;-79
2022/12/15 15:37:20;;;;;;;51.70;28.23;;;-0.40;99.90;;;;;;4960307;29;20472;-79
2022/12/15 15:42:41;;;;;;;59.00;27.90;;;-0.30;99.90;;;;;;4978072;28;20551;-79
2022/12/15 15:45:16;;;;;;;57.97;27.47;;;-0.60;99.90;;;;;;4978513;28;20787;-79